sensor_id;sensor_type;location;lat;lon;timestamp;temperature;humidity
15844;DHT22;50807;52.436;13.346;2023-04-25T00:00:11;13.40;82.30
15844;DHT22;50807;52.436;13.346;2023-04-25T00:00:42;13.30;82.30
15844;DHT22;50807;52.436;13.346;2023-04-25T00:01:13;13.40;82.30
15844;DHT22;50807;52.436;13.346;2023-04-25T00:01:45;13.30;82.30
15844;DHT22;50807;52.436;13.346;2023-04-25T00:02:15;13.30;82.30
15844;DHT22;50807;52.436;13.346;2023-04-25T00:02:46;13.30;82.40
15844;DHT22;50807;52.436;13.346;2023-04-25T00:03:18;13.30;82.30
15844;DHT22;50807;52.436;13.346;2023-04-25T00:03:51;13.30;82.40
15844;DHT22;50807;52.436;13.346;2023-04-25T00:04:22;13.30;82.30
15844;DHT22;50807;52.436;13.346;2023-04-25T00:04:53;13.30;82.40
15844;DHT22;50807;52.436;13.346;2023-04-25T00:05:28;13.30;82.40
15844;DHT22;50807;52.436;13.346;2023-04-25T00:05:59;13.30;82.40
15844;DHT22;50807;52.436;13.346;2023-04-25T00:06:33;13.30;83.10
15844;DHT22;50807;52.436;13.346;2023-04-25T00:07:06;13.20;82.40
15844;DHT22;50807;52.436;13.346;2023-04-25T00:07:37;13.20;82.30
15844;DHT22;50807;52.436;13.346;2023-04-25T00:08:08;13.20;82.20
15844;DHT22;50807;52.436;13.346;2023-04-25T00:08:40;13.20;82.20
15844;DHT22;50807;52.436;13.346;2023-04-25T00:09:10;13.20;82.20
15844;DHT22;50807;52.436;13.346;2023-04-25T00:09:42;13.20;82.20
15844;DHT22;50807;52.436;13.346;2023-04-25T00:10:13;13.20;82.10
15844;DHT22;50807;52.436;13.346;2023-04-25T00:10:44;13.20;82.20
15844;DHT22;50807;52.436;13.346;2023-04-25T00:11:15;13.20;82.20
15844;DHT22;50807;52.436;13.346;2023-04-25T00:11:46;13.20;82.20
15844;DHT22;50807;52.436;13.346;2023-04-25T00:12:17;13.20;82.20
15844;DHT22;50807;52.436;13.346;2023-04-25T00:12:50;13.10;82.20
15844;DHT22;50807;52.436;13.346;2023-04-25T00:13:22;13.10;82.20
15844;DHT22;50807;52.436;13.346;2023-04-25T00:13:52;13.10;82.10
15844;DHT22;50807;52.436;13.346;2023-04-25T00:14:24;13.10;82.20
15844;DHT22;50807;52.436;13.346;2023-04-25T00:14:55;13.10;82.20
15844;DHT22;50807;52.436;13.346;2023-04-25T00:15:27;13.10;82.30
15844;DHT22;50807;52.436;13.346;2023-04-25T00:16:00;13.10;82.30
15844;DHT22;50807;52.436;13.346;2023-04-25T00:16:32;13.10;82.30
15844;DHT22;50807;52.436;13.346;2023-04-25T00:17:05;13.10;82.30
15844;DHT22;50807;52.436;13.346;2023-04-25T00:17:36;13.10;82.30
15844;DHT22;50807;52.436;13.346;2023-04-25T00:18:08;13.10;82.30
15844;DHT22;50807;52.436;13.346;2023-04-25T00:18:39;13.10;82.30
15844;DHT22;50807;52.436;13.346;2023-04-25T00:19:10;13.00;82.30
15844;DHT22;50807;52.436;13.346;2023-04-25T00:19:41;13.10;82.40
15844;DHT22;50807;52.436;13.346;2023-04-25T00:20:12;13.00;82.30
15844;DHT22;50807;52.436;13.346;2023-04-25T00:20:43;13.10;82.40
15844;DHT22;50807;52.436;13.346;2023-04-25T00:21:17;13.00;82.30
15844;DHT22;50807;52.436;13.346;2023-04-25T00:21:48;13.10;82.40
15844;DHT22;50807;52.436;13.346;2023-04-25T00:22:20;13.00;82.40
15844;DHT22;50807;52.436;13.346;2023-04-25T00:22:52;13.00;82.40
15844;DHT22;50807;52.436;13.346;2023-04-25T00:23:23;13.00;82.40
15844;DHT22;50807;52.436;13.346;2023-04-25T00:23:54;13.00;82.40
15844;DHT22;50807;52.436;13.346;2023-04-25T00:24:26;13.00;82.40
15844;DHT22;50807;52.436;13.346;2023-04-25T00:24:57;13.00;82.40
15844;DHT22;50807;52.436;13.346;2023-04-25T00:25:30;13.00;82.50
15844;DHT22;50807;52.436;13.346;2023-04-25T00:26:02;13.00;82.50
15844;DHT22;50807;52.436;13.346;2023-04-25T00:26:33;13.00;82.50
15844;DHT22;50807;52.436;13.346;2023-04-25T00:27:05;13.00;82.60
15844;DHT22;50807;52.436;13.346;2023-04-25T00:27:36;13.00;82.60
15844;DHT22;50807;52.436;13.346;2023-04-25T00:28:10;13.00;82.60
15844;DHT22;50807;52.436;13.346;2023-04-25T00:28:41;13.00;82.70
15844;DHT22;50807;52.436;13.346;2023-04-25T00:29:12;13.00;82.70
15844;DHT22;50807;52.436;13.346;2023-04-25T00:29:43;13.00;82.80
15844;DHT22;50807;52.436;13.346;2023-04-25T00:30:14;13.00;82.80
15844;DHT22;50807;52.436;13.346;2023-04-25T00:30:46;13.00;82.80
15844;DHT22;50807;52.436;13.346;2023-04-25T00:31:17;13.00;82.80
15844;DHT22;50807;52.436;13.346;2023-04-25T00:31:48;13.00;82.90
15844;DHT22;50807;52.436;13.346;2023-04-25T00:32:19;13.00;82.90
15844;DHT22;50807;52.436;13.346;2023-04-25T00:32:50;13.00;82.90
15844;DHT22;50807;52.436;13.346;2023-04-25T00:33:21;13.00;82.90
15844;DHT22;50807;52.436;13.346;2023-04-25T00:33:52;13.00;82.90
15844;DHT22;50807;52.436;13.346;2023-04-25T00:34:24;13.00;83.00
15844;DHT22;50807;52.436;13.346;2023-04-25T00:34:55;13.00;83.00
15844;DHT22;50807;52.436;13.346;2023-04-25T00:35:26;13.00;83.00
15844;DHT22;50807;52.436;13.346;2023-04-25T00:35:58;13.00;83.00
15844;DHT22;50807;52.436;13.346;2023-04-25T00:36:28;13.00;83.00
15844;DHT22;50807;52.436;13.346;2023-04-25T00:37:00;13.00;83.10
15844;DHT22;50807;52.436;13.346;2023-04-25T00:37:32;13.00;83.10
15844;DHT22;50807;52.436;13.346;2023-04-25T00:38:03;13.00;83.10
15844;DHT22;50807;52.436;13.346;2023-04-25T00:38:34;13.00;83.20
15844;DHT22;50807;52.436;13.346;2023-04-25T00:39:06;13.10;83.20
15844;DHT22;50807;52.436;13.346;2023-04-25T00:39:37;13.10;83.20
15844;DHT22;50807;52.436;13.346;2023-04-25T00:40:08;13.10;83.20
15844;DHT22;50807;52.436;13.346;2023-04-25T00:40:40;13.10;83.20
15844;DHT22;50807;52.436;13.346;2023-04-25T00:41:13;13.10;83.20
15844;DHT22;50807;52.436;13.346;2023-04-25T00:41:45;13.10;83.20
15844;DHT22;50807;52.436;13.346;2023-04-25T00:42:16;13.10;83.20
15844;DHT22;50807;52.436;13.346;2023-04-25T00:42:48;13.10;83.20
15844;DHT22;50807;52.436;13.346;2023-04-25T00:43:21;13.10;83.20
15844;DHT22;50807;52.436;13.346;2023-04-25T00:43:54;13.10;83.10
15844;DHT22;50807;52.436;13.346;2023-04-25T00:44:26;13.10;83.20
15844;DHT22;50807;52.436;13.346;2023-04-25T00:45:00;13.10;83.20
15844;DHT22;50807;52.436;13.346;2023-04-25T00:45:34;13.20;83.30
15844;DHT22;50807;52.436;13.346;2023-04-25T00:46:09;13.10;83.20
15844;DHT22;50807;52.436;13.346;2023-04-25T00:46:40;13.10;83.10
15844;DHT22;50807;52.436;13.346;2023-04-25T00:47:12;13.20;83.20
15844;DHT22;50807;52.436;13.346;2023-04-25T00:47:44;13.20;83.20
15844;DHT22;50807;52.436;13.346;2023-04-25T00:48:14;13.20;83.20
15844;DHT22;50807;52.436;13.346;2023-04-25T00:48:45;13.20;83.20
15844;DHT22;50807;52.436;13.346;2023-04-25T00:49:17;13.20;83.20
15844;DHT22;50807;52.436;13.346;2023-04-25T00:49:48;13.20;83.20
15844;DHT22;50807;52.436;13.346;2023-04-25T00:50:19;13.20;83.20
15844;DHT22;50807;52.436;13.346;2023-04-25T00:50:52;13.20;83.20
15844;DHT22;50807;52.436;13.346;2023-04-25T00:51:24;13.20;83.20
15844;DHT22;50807;52.436;13.346;2023-04-25T00:51:57;13.20;83.20
15844;DHT22;50807;52.436;13.346;2023-04-25T00:52:28;13.20;83.10
15844;DHT22;50807;52.436;13.346;2023-04-25T00:53:00;13.20;83.10
15844;DHT22;50807;52.436;13.346;2023-04-25T00:53:32;13.20;83.10
15844;DHT22;50807;52.436;13.346;2023-04-25T00:54:04;13.20;83.20
15844;DHT22;50807;52.436;13.346;2023-04-25T00:54:35;13.20;83.20
15844;DHT22;50807;52.436;13.346;2023-04-25T00:55:06;13.20;83.20
15844;DHT22;50807;52.436;13.346;2023-04-25T00:55:39;13.20;83.20
15844;DHT22;50807;52.436;13.346;2023-04-25T00:56:09;13.20;83.20
15844;DHT22;50807;52.436;13.346;2023-04-25T00:56:41;13.20;83.30
15844;DHT22;50807;52.436;13.346;2023-04-25T00:57:13;13.20;83.30
15844;DHT22;50807;52.436;13.346;2023-04-25T00:57:44;13.20;83.30
15844;DHT22;50807;52.436;13.346;2023-04-25T00:58:15;13.20;83.30
15844;DHT22;50807;52.436;13.346;2023-04-25T00:58:48;13.20;83.30
15844;DHT22;50807;52.436;13.346;2023-04-25T00:59:20;13.20;83.40
15844;DHT22;50807;52.436;13.346;2023-04-25T00:59:51;13.20;83.40
15844;DHT22;50807;52.436;13.346;2023-04-25T01:00:24;13.20;83.40
15844;DHT22;50807;52.436;13.346;2023-04-25T01:00:56;13.20;83.40
15844;DHT22;50807;52.436;13.346;2023-04-25T01:01:27;13.20;83.40
15844;DHT22;50807;52.436;13.346;2023-04-25T01:02:00;13.20;83.40
15844;DHT22;50807;52.436;13.346;2023-04-25T01:02:32;13.20;83.30
15844;DHT22;50807;52.436;13.346;2023-04-25T01:03:03;13.20;83.40
15844;DHT22;50807;52.436;13.346;2023-04-25T01:03:38;13.20;83.40
15844;DHT22;50807;52.436;13.346;2023-04-25T01:04:11;13.20;83.40
15844;DHT22;50807;52.436;13.346;2023-04-25T01:04:42;13.20;83.40
15844;DHT22;50807;52.436;13.346;2023-04-25T01:05:13;13.20;83.30
15844;DHT22;50807;52.436;13.346;2023-04-25T01:05:44;13.20;83.30
15844;DHT22;50807;52.436;13.346;2023-04-25T01:06:17;13.20;83.30
15844;DHT22;50807;52.436;13.346;2023-04-25T01:06:49;13.30;83.40
15844;DHT22;50807;52.436;13.346;2023-04-25T01:07:20;13.20;83.30
15844;DHT22;50807;52.436;13.346;2023-04-25T01:07:51;13.30;83.30
15844;DHT22;50807;52.436;13.346;2023-04-25T01:08:24;13.30;83.40
15844;DHT22;50807;52.436;13.346;2023-04-25T01:08:56;13.30;83.30
15844;DHT22;50807;52.436;13.346;2023-04-25T01:09:27;13.30;83.30
15844;DHT22;50807;52.436;13.346;2023-04-25T01:09:59;13.30;83.30
15844;DHT22;50807;52.436;13.346;2023-04-25T01:10:30;13.30;83.30
15844;DHT22;50807;52.436;13.346;2023-04-25T01:11:01;13.30;83.30
15844;DHT22;50807;52.436;13.346;2023-04-25T01:11:32;13.30;83.30
15844;DHT22;50807;52.436;13.346;2023-04-25T01:12:04;13.30;83.30
15844;DHT22;50807;52.436;13.346;2023-04-25T01:12:35;13.30;83.30
15844;DHT22;50807;52.436;13.346;2023-04-25T01:13:07;13.30;83.40
15844;DHT22;50807;52.436;13.346;2023-04-25T01:13:38;13.30;83.40
15844;DHT22;50807;52.436;13.346;2023-04-25T01:14:10;13.30;83.30
15844;DHT22;50807;52.436;13.346;2023-04-25T01:14:42;13.30;83.40
15844;DHT22;50807;52.436;13.346;2023-04-25T01:15:13;13.30;83.40
15844;DHT22;50807;52.436;13.346;2023-04-25T01:15:43;13.30;84.00
15844;DHT22;50807;52.436;13.346;2023-04-25T01:16:15;13.30;83.30
15844;DHT22;50807;52.436;13.346;2023-04-25T01:16:46;13.30;83.30
15844;DHT22;50807;52.436;13.346;2023-04-25T01:17:17;13.30;83.30
15844;DHT22;50807;52.436;13.346;2023-04-25T01:17:50;13.30;83.40
15844;DHT22;50807;52.436;13.346;2023-04-25T01:18:20;13.30;83.30
15844;DHT22;50807;52.436;13.346;2023-04-25T01:18:52;13.30;83.30
15844;DHT22;50807;52.436;13.346;2023-04-25T01:19:23;13.30;83.30
15844;DHT22;50807;52.436;13.346;2023-04-25T01:19:54;13.30;83.30
15844;DHT22;50807;52.436;13.346;2023-04-25T01:20:25;13.30;83.30
15844;DHT22;50807;52.436;13.346;2023-04-25T01:21:06;13.30;83.30
15844;DHT22;50807;52.436;13.346;2023-04-25T01:21:38;13.30;83.30
15844;DHT22;50807;52.436;13.346;2023-04-25T01:22:10;13.30;83.30
15844;DHT22;50807;52.436;13.346;2023-04-25T01:22:42;13.30;83.30
15844;DHT22;50807;52.436;13.346;2023-04-25T01:23:13;13.30;83.20
15844;DHT22;50807;52.436;13.346;2023-04-25T01:23:45;13.30;83.30
15844;DHT22;50807;52.436;13.346;2023-04-25T01:24:17;13.30;83.30
15844;DHT22;50807;52.436;13.346;2023-04-25T01:24:48;13.30;83.20
15844;DHT22;50807;52.436;13.346;2023-04-25T01:25:21;13.30;83.20
15844;DHT22;50807;52.436;13.346;2023-04-25T01:25:52;13.40;83.30
15844;DHT22;50807;52.436;13.346;2023-04-25T01:26:24;13.40;83.30
15844;DHT22;50807;52.436;13.346;2023-04-25T01:26:56;13.40;83.20
15844;DHT22;50807;52.436;13.346;2023-04-25T01:27:29;13.40;83.20
15844;DHT22;50807;52.436;13.346;2023-04-25T01:28:00;13.40;83.20
15844;DHT22;50807;52.436;13.346;2023-04-25T01:28:33;13.40;83.20
15844;DHT22;50807;52.436;13.346;2023-04-25T01:29:04;13.40;83.20
15844;DHT22;50807;52.436;13.346;2023-04-25T01:29:36;13.40;83.20
15844;DHT22;50807;52.436;13.346;2023-04-25T01:30:09;13.40;83.20
15844;DHT22;50807;52.436;13.346;2023-04-25T01:30:40;13.40;83.20
15844;DHT22;50807;52.436;13.346;2023-04-25T01:31:12;13.40;83.20
15844;DHT22;50807;52.436;13.346;2023-04-25T01:31:44;13.40;83.20
15844;DHT22;50807;52.436;13.346;2023-04-25T01:32:16;13.40;83.20
15844;DHT22;50807;52.436;13.346;2023-04-25T01:32:48;13.40;83.20
15844;DHT22;50807;52.436;13.346;2023-04-25T01:33:21;13.40;83.20
15844;DHT22;50807;52.436;13.346;2023-04-25T01:33:53;13.40;83.20
15844;DHT22;50807;52.436;13.346;2023-04-25T01:34:24;13.40;83.20
15844;DHT22;50807;52.436;13.346;2023-04-25T01:34:55;13.40;83.20
15844;DHT22;50807;52.436;13.346;2023-04-25T01:35:27;13.40;83.20
15844;DHT22;50807;52.436;13.346;2023-04-25T01:35:58;13.40;83.20
15844;DHT22;50807;52.436;13.346;2023-04-25T01:36:30;13.40;83.20
15844;DHT22;50807;52.436;13.346;2023-04-25T01:37:02;13.40;83.30
15844;DHT22;50807;52.436;13.346;2023-04-25T01:37:33;13.40;83.20
15844;DHT22;50807;52.436;13.346;2023-04-25T01:38:04;13.40;83.20
15844;DHT22;50807;52.436;13.346;2023-04-25T01:38:35;13.40;83.30
15844;DHT22;50807;52.436;13.346;2023-04-25T01:39:07;13.30;83.20
15844;DHT22;50807;52.436;13.346;2023-04-25T01:39:38;13.30;83.20
15844;DHT22;50807;52.436;13.346;2023-04-25T01:40:10;13.30;83.20
15844;DHT22;50807;52.436;13.346;2023-04-25T01:40:44;13.30;83.20
15844;DHT22;50807;52.436;13.346;2023-04-25T01:41:16;13.30;83.20
15844;DHT22;50807;52.436;13.346;2023-04-25T01:41:48;13.30;83.10
15844;DHT22;50807;52.436;13.346;2023-04-25T01:42:20;13.30;83.20
15844;DHT22;50807;52.436;13.346;2023-04-25T01:42:51;13.30;83.10
15844;DHT22;50807;52.436;13.346;2023-04-25T01:43:22;13.30;83.10
15844;DHT22;50807;52.436;13.346;2023-04-25T01:43:55;13.30;83.10
15844;DHT22;50807;52.436;13.346;2023-04-25T01:44:26;13.30;83.10
15844;DHT22;50807;52.436;13.346;2023-04-25T01:44:57;13.30;83.00
15844;DHT22;50807;52.436;13.346;2023-04-25T01:45:29;13.30;83.10
15844;DHT22;50807;52.436;13.346;2023-04-25T01:46:00;13.30;83.10
15844;DHT22;50807;52.436;13.346;2023-04-25T01:46:33;13.30;83.10
15844;DHT22;50807;52.436;13.346;2023-04-25T01:47:05;13.30;83.10
15844;DHT22;50807;52.436;13.346;2023-04-25T01:47:36;13.30;83.10
15844;DHT22;50807;52.436;13.346;2023-04-25T01:48:07;13.30;83.10
15844;DHT22;50807;52.436;13.346;2023-04-25T01:48:38;13.20;83.20
15844;DHT22;50807;52.436;13.346;2023-04-25T01:49:10;13.20;83.20
15844;DHT22;50807;52.436;13.346;2023-04-25T01:49:41;13.20;83.20
15844;DHT22;50807;52.436;13.346;2023-04-25T01:50:12;13.20;83.20
15844;DHT22;50807;52.436;13.346;2023-04-25T01:50:43;13.20;83.10
15844;DHT22;50807;52.436;13.346;2023-04-25T01:51:15;13.20;83.20
15844;DHT22;50807;52.436;13.346;2023-04-25T01:51:48;13.20;83.20
15844;DHT22;50807;52.436;13.346;2023-04-25T01:52:18;13.20;83.20
15844;DHT22;50807;52.436;13.346;2023-04-25T01:52:50;13.20;83.20
15844;DHT22;50807;52.436;13.346;2023-04-25T01:53:21;13.20;83.30
15844;DHT22;50807;52.436;13.346;2023-04-25T01:53:54;13.20;83.30
15844;DHT22;50807;52.436;13.346;2023-04-25T01:54:26;13.20;83.40
15844;DHT22;50807;52.436;13.346;2023-04-25T01:54:57;13.20;83.40
15844;DHT22;50807;52.436;13.346;2023-04-25T01:55:30;13.10;83.50
15844;DHT22;50807;52.436;13.346;2023-04-25T01:56:02;13.10;83.50
15844;DHT22;50807;52.436;13.346;2023-04-25T01:56:37;13.10;83.50
15844;DHT22;50807;52.436;13.346;2023-04-25T01:57:08;13.10;83.60
15844;DHT22;50807;52.436;13.346;2023-04-25T01:57:40;13.10;83.50
15844;DHT22;50807;52.436;13.346;2023-04-25T01:58:10;13.10;83.60
15844;DHT22;50807;52.436;13.346;2023-04-25T01:58:43;13.10;83.60
15844;DHT22;50807;52.436;13.346;2023-04-25T01:59:14;13.10;83.70
15844;DHT22;50807;52.436;13.346;2023-04-25T01:59:45;13.10;83.60
15844;DHT22;50807;52.436;13.346;2023-04-25T02:00:17;13.10;83.70
15844;DHT22;50807;52.436;13.346;2023-04-25T02:00:49;13.10;83.70
15844;DHT22;50807;52.436;13.346;2023-04-25T02:01:20;13.10;83.80
15844;DHT22;50807;52.436;13.346;2023-04-25T02:01:51;13.10;83.80
15844;DHT22;50807;52.436;13.346;2023-04-25T02:02:22;13.10;83.80
15844;DHT22;50807;52.436;13.346;2023-04-25T02:02:53;13.10;83.80
15844;DHT22;50807;52.436;13.346;2023-04-25T02:03:24;13.10;83.90
15844;DHT22;50807;52.436;13.346;2023-04-25T02:03:56;13.10;83.90
15844;DHT22;50807;52.436;13.346;2023-04-25T02:04:26;13.10;83.90
15844;DHT22;50807;52.436;13.346;2023-04-25T02:04:57;13.10;84.00
15844;DHT22;50807;52.436;13.346;2023-04-25T02:05:34;13.10;84.00
15844;DHT22;50807;52.436;13.346;2023-04-25T02:06:06;13.10;84.10
15844;DHT22;50807;52.436;13.346;2023-04-25T02:06:37;13.10;84.00
15844;DHT22;50807;52.436;13.346;2023-04-25T02:07:10;13.10;84.00
15844;DHT22;50807;52.436;13.346;2023-04-25T02:07:40;13.10;84.00
15844;DHT22;50807;52.436;13.346;2023-04-25T02:08:11;13.10;84.00
15844;DHT22;50807;52.436;13.346;2023-04-25T02:08:43;13.10;84.00
15844;DHT22;50807;52.436;13.346;2023-04-25T02:09:13;13.10;83.90
15844;DHT22;50807;52.436;13.346;2023-04-25T02:09:44;13.10;84.00
15844;DHT22;50807;52.436;13.346;2023-04-25T02:10:16;13.10;83.90
15844;DHT22;50807;52.436;13.346;2023-04-25T02:10:47;13.10;83.90
15844;DHT22;50807;52.436;13.346;2023-04-25T02:11:17;13.10;83.90
15844;DHT22;50807;52.436;13.346;2023-04-25T02:11:49;13.10;83.90
15844;DHT22;50807;52.436;13.346;2023-04-25T02:12:20;13.10;83.90
15844;DHT22;50807;52.436;13.346;2023-04-25T02:12:51;13.10;83.90
15844;DHT22;50807;52.436;13.346;2023-04-25T02:13:23;13.20;84.00
15844;DHT22;50807;52.436;13.346;2023-04-25T02:13:53;13.20;84.00
15844;DHT22;50807;52.436;13.346;2023-04-25T02:14:24;13.20;84.10
15844;DHT22;50807;52.436;13.346;2023-04-25T02:14:56;13.20;84.10
15844;DHT22;50807;52.436;13.346;2023-04-25T02:15:27;13.20;84.00
15844;DHT22;50807;52.436;13.346;2023-04-25T02:15:58;13.20;84.00
15844;DHT22;50807;52.436;13.346;2023-04-25T02:16:30;13.20;84.00
15844;DHT22;50807;52.436;13.346;2023-04-25T02:17:01;13.20;84.00
15844;DHT22;50807;52.436;13.346;2023-04-25T02:17:32;13.20;84.10
15844;DHT22;50807;52.436;13.346;2023-04-25T02:18:04;13.20;84.10
15844;DHT22;50807;52.436;13.346;2023-04-25T02:18:36;13.20;84.10
15844;DHT22;50807;52.436;13.346;2023-04-25T02:19:09;13.20;84.10
15844;DHT22;50807;52.436;13.346;2023-04-25T02:19:42;13.20;84.10
15844;DHT22;50807;52.436;13.346;2023-04-25T02:20:13;13.20;84.00
15844;DHT22;50807;52.436;13.346;2023-04-25T02:20:46;13.20;84.00
15844;DHT22;50807;52.436;13.346;2023-04-25T02:21:18;13.20;84.10
15844;DHT22;50807;52.436;13.346;2023-04-25T02:21:49;13.20;84.10
15844;DHT22;50807;52.436;13.346;2023-04-25T02:22:21;13.20;84.10
15844;DHT22;50807;52.436;13.346;2023-04-25T02:22:53;13.20;84.00
15844;DHT22;50807;52.436;13.346;2023-04-25T02:23:24;13.20;84.00
15844;DHT22;50807;52.436;13.346;2023-04-25T02:23:55;13.20;84.10
15844;DHT22;50807;52.436;13.346;2023-04-25T02:24:27;13.20;84.10
15844;DHT22;50807;52.436;13.346;2023-04-25T02:24:58;13.20;84.10
15844;DHT22;50807;52.436;13.346;2023-04-25T02:25:29;13.20;84.00
15844;DHT22;50807;52.436;13.346;2023-04-25T02:26:01;13.20;84.10
15844;DHT22;50807;52.436;13.346;2023-04-25T02:26:32;13.20;84.10
15844;DHT22;50807;52.436;13.346;2023-04-25T02:27:03;13.20;84.10
15844;DHT22;50807;52.436;13.346;2023-04-25T02:27:35;13.20;84.10
15844;DHT22;50807;52.436;13.346;2023-04-25T02:28:07;13.20;84.10
15844;DHT22;50807;52.436;13.346;2023-04-25T02:28:38;13.20;84.10
15844;DHT22;50807;52.436;13.346;2023-04-25T02:29:09;13.20;84.10
15844;DHT22;50807;52.436;13.346;2023-04-25T02:29:40;13.20;84.10
15844;DHT22;50807;52.436;13.346;2023-04-25T02:30:12;13.20;84.00
15844;DHT22;50807;52.436;13.346;2023-04-25T02:30:43;13.20;84.10
15844;DHT22;50807;52.436;13.346;2023-04-25T02:31:14;13.20;84.10
15844;DHT22;50807;52.436;13.346;2023-04-25T02:31:46;13.20;84.10
15844;DHT22;50807;52.436;13.346;2023-04-25T02:32:16;13.10;84.00
15844;DHT22;50807;52.436;13.346;2023-04-25T02:32:47;13.10;84.10
15844;DHT22;50807;52.436;13.346;2023-04-25T02:33:19;13.10;84.10
15844;DHT22;50807;52.436;13.346;2023-04-25T02:33:51;13.10;84.10
15844;DHT22;50807;52.436;13.346;2023-04-25T02:34:22;13.10;84.10
15844;DHT22;50807;52.436;13.346;2023-04-25T02:34:54;13.10;84.10
15844;DHT22;50807;52.436;13.346;2023-04-25T02:35:24;13.10;84.10
15844;DHT22;50807;52.436;13.346;2023-04-25T02:35:55;13.10;84.80
15844;DHT22;50807;52.436;13.346;2023-04-25T02:36:27;13.10;84.10
15844;DHT22;50807;52.436;13.346;2023-04-25T02:37:00;13.10;84.10
15844;DHT22;50807;52.436;13.346;2023-04-25T02:37:33;13.10;84.10
15844;DHT22;50807;52.436;13.346;2023-04-25T02:38:05;13.10;84.20
15844;DHT22;50807;52.436;13.346;2023-04-25T02:38:36;13.10;84.20
15844;DHT22;50807;52.436;13.346;2023-04-25T02:39:07;13.10;84.10
15844;DHT22;50807;52.436;13.346;2023-04-25T02:39:40;13.10;84.20
15844;DHT22;50807;52.436;13.346;2023-04-25T02:40:11;13.10;84.20
15844;DHT22;50807;52.436;13.346;2023-04-25T02:40:42;13.10;84.20
15844;DHT22;50807;52.436;13.346;2023-04-25T02:41:14;13.10;84.20
15844;DHT22;50807;52.436;13.346;2023-04-25T02:41:45;13.10;84.10
15844;DHT22;50807;52.436;13.346;2023-04-25T02:42:16;13.10;84.10
15844;DHT22;50807;52.436;13.346;2023-04-25T02:42:48;13.10;84.10
15844;DHT22;50807;52.436;13.346;2023-04-25T02:43:18;13.10;84.10
15844;DHT22;50807;52.436;13.346;2023-04-25T02:43:51;13.10;84.10
15844;DHT22;50807;52.436;13.346;2023-04-25T02:44:21;13.10;84.10
15844;DHT22;50807;52.436;13.346;2023-04-25T02:44:52;13.10;84.10
15844;DHT22;50807;52.436;13.346;2023-04-25T02:45:24;13.10;84.10
15844;DHT22;50807;52.436;13.346;2023-04-25T02:45:55;13.10;84.20
15844;DHT22;50807;52.436;13.346;2023-04-25T02:46:26;13.10;84.20
15844;DHT22;50807;52.436;13.346;2023-04-25T02:46:57;13.10;84.20
15844;DHT22;50807;52.436;13.346;2023-04-25T02:47:28;13.10;84.20
15844;DHT22;50807;52.436;13.346;2023-04-25T02:47:59;13.10;84.30
15844;DHT22;50807;52.436;13.346;2023-04-25T02:48:31;13.10;84.30
15844;DHT22;50807;52.436;13.346;2023-04-25T02:49:02;13.10;84.30
15844;DHT22;50807;52.436;13.346;2023-04-25T02:49:33;13.10;84.30
15844;DHT22;50807;52.436;13.346;2023-04-25T02:50:05;13.10;84.20
15844;DHT22;50807;52.436;13.346;2023-04-25T02:50:37;13.10;84.30
15844;DHT22;50807;52.436;13.346;2023-04-25T02:51:08;13.10;84.30
15844;DHT22;50807;52.436;13.346;2023-04-25T02:51:42;13.10;84.40
15844;DHT22;50807;52.436;13.346;2023-04-25T02:52:14;13.10;84.40
15844;DHT22;50807;52.436;13.346;2023-04-25T02:52:46;13.10;84.40
15844;DHT22;50807;52.436;13.346;2023-04-25T02:53:18;13.10;84.40
15844;DHT22;50807;52.436;13.346;2023-04-25T02:53:48;13.10;84.40
15844;DHT22;50807;52.436;13.346;2023-04-25T02:54:19;13.10;84.40
15844;DHT22;50807;52.436;13.346;2023-04-25T02:54:51;13.10;84.40
15844;DHT22;50807;52.436;13.346;2023-04-25T02:55:22;13.10;84.40
15844;DHT22;50807;52.436;13.346;2023-04-25T02:55:52;13.10;85.10
15844;DHT22;50807;52.436;13.346;2023-04-25T02:56:24;13.10;84.40
15844;DHT22;50807;52.436;13.346;2023-04-25T02:56:56;13.10;84.40
15844;DHT22;50807;52.436;13.346;2023-04-25T02:57:27;13.10;84.40
15844;DHT22;50807;52.436;13.346;2023-04-25T02:57:59;13.10;84.40
15844;DHT22;50807;52.436;13.346;2023-04-25T02:58:29;13.10;84.50
15844;DHT22;50807;52.436;13.346;2023-04-25T02:59:00;13.10;84.60
15844;DHT22;50807;52.436;13.346;2023-04-25T02:59:32;13.10;84.60
15844;DHT22;50807;52.436;13.346;2023-04-25T03:00:04;13.10;84.60
15844;DHT22;50807;52.436;13.346;2023-04-25T03:00:36;13.10;84.60
15844;DHT22;50807;52.436;13.346;2023-04-25T03:01:07;13.10;84.60
15844;DHT22;50807;52.436;13.346;2023-04-25T03:01:38;13.10;84.60
15844;DHT22;50807;52.436;13.346;2023-04-25T03:02:09;13.10;84.60
15844;DHT22;50807;52.436;13.346;2023-04-25T03:02:41;13.00;84.50
15844;DHT22;50807;52.436;13.346;2023-04-25T03:03:12;13.10;84.60
15844;DHT22;50807;52.436;13.346;2023-04-25T03:03:42;13.10;84.60
15844;DHT22;50807;52.436;13.346;2023-04-25T03:04:14;13.10;84.60
15844;DHT22;50807;52.436;13.346;2023-04-25T03:04:45;13.10;84.70
15844;DHT22;50807;52.436;13.346;2023-04-25T03:05:16;13.10;84.70
15844;DHT22;50807;52.436;13.346;2023-04-25T03:05:47;13.10;84.70
15844;DHT22;50807;52.436;13.346;2023-04-25T03:06:20;13.10;84.70
15844;DHT22;50807;52.436;13.346;2023-04-25T03:06:51;13.10;84.70
15844;DHT22;50807;52.436;13.346;2023-04-25T03:07:23;13.10;84.70
15844;DHT22;50807;52.436;13.346;2023-04-25T03:07:56;13.10;84.70
15844;DHT22;50807;52.436;13.346;2023-04-25T03:08:27;13.10;84.70
15844;DHT22;50807;52.436;13.346;2023-04-25T03:09:02;13.10;84.70
15844;DHT22;50807;52.436;13.346;2023-04-25T03:09:34;13.10;84.70
15844;DHT22;50807;52.436;13.346;2023-04-25T03:10:06;13.10;84.70
15844;DHT22;50807;52.436;13.346;2023-04-25T03:10:38;13.10;84.70
15844;DHT22;50807;52.436;13.346;2023-04-25T03:11:10;13.10;84.70
15844;DHT22;50807;52.436;13.346;2023-04-25T03:11:41;13.10;84.70
15844;DHT22;50807;52.436;13.346;2023-04-25T03:12:12;13.10;84.70
15844;DHT22;50807;52.436;13.346;2023-04-25T03:12:44;13.10;84.70
15844;DHT22;50807;52.436;13.346;2023-04-25T03:13:14;13.10;84.60
15844;DHT22;50807;52.436;13.346;2023-04-25T03:13:45;13.10;84.60
15844;DHT22;50807;52.436;13.346;2023-04-25T03:14:16;13.10;84.60
15844;DHT22;50807;52.436;13.346;2023-04-25T03:14:48;13.10;84.70
15844;DHT22;50807;52.436;13.346;2023-04-25T03:15:19;13.10;84.70
15844;DHT22;50807;52.436;13.346;2023-04-25T03:15:50;13.10;84.70
15844;DHT22;50807;52.436;13.346;2023-04-25T03:16:21;13.10;84.70